createdAt,value
2023-04-07T00:00:21.534Z,7.51
2023-04-07T00:03:32.580Z,7.47
2023-04-07T00:06:43.674Z,7.45
2023-04-07T00:09:54.526Z,7.42
2023-04-07T00:13:06.038Z,7.37
2023-04-07T00:16:16.866Z,7.29
2023-04-07T00:19:28.346Z,7.22
2023-04-07T00:22:41.197Z,7.16
2023-04-07T00:25:52.216Z,7.12
2023-04-07T00:29:02.217Z,7.09
2023-04-07T00:32:13.411Z,7.06
2023-04-07T00:35:24.670Z,7.03
2023-04-07T00:38:35.718Z,7.01
2023-04-07T00:41:46.514Z,6.96
2023-04-07T00:44:57.255Z,6.91
2023-04-07T00:48:08.141Z,6.89
2023-04-07T00:51:20.019Z,6.88
2023-04-07T00:54:25.032Z,6.85
2023-04-07T00:57:36.098Z,6.83
2023-04-07T01:00:52.989Z,6.81
2023-04-07T01:04:07.018Z,6.77
2023-04-07T01:07:16.505Z,6.76
2023-04-07T01:10:31.699Z,6.72
2023-04-07T01:13:44.799Z,6.67
2023-04-07T01:16:59.305Z,6.63
2023-04-07T01:20:12.302Z,6.61
2023-04-07T01:23:19.234Z,6.57
2023-04-07T01:26:27.146Z,6.53
2023-04-07T01:29:40.657Z,6.50
2023-04-07T01:32:53.479Z,6.48
2023-04-07T01:36:04.730Z,6.44
2023-04-07T01:39:16.164Z,6.39
2023-04-07T01:42:30.706Z,6.34
2023-04-07T01:45:42.990Z,6.31
2023-04-07T01:48:57.124Z,6.28
2023-04-07T01:52:09.130Z,6.23
2023-04-07T01:55:20.116Z,6.19
2023-04-07T01:58:32.454Z,6.16
2023-04-07T02:01:43.644Z,6.13
2023-04-07T02:04:56.612Z,6.10
2023-04-07T02:08:05.311Z,6.06
2023-04-07T02:11:18.567Z,6.02
2023-04-07T02:14:29.772Z,5.98
2023-04-07T02:17:47.092Z,5.94
2023-04-07T02:20:59.162Z,5.91
2023-04-07T02:24:12.842Z,5.90
2023-04-07T02:27:23.699Z,5.93
2023-04-07T02:30:35.086Z,5.96
2023-04-07T02:33:45.939Z,5.99
2023-04-07T02:36:57.266Z,5.99
2023-04-07T02:40:09.338Z,6.00
2023-04-07T02:43:21.329Z,5.99
2023-04-07T02:46:32.294Z,5.95
2023-04-07T02:49:43.598Z,5.92
2023-04-07T02:52:57.051Z,5.89
2023-04-07T02:56:08.891Z,5.83
2023-04-07T02:59:19.803Z,5.76
2023-04-07T03:02:30.855Z,5.71
2023-04-07T03:05:44.313Z,5.66
2023-04-07T03:08:55.920Z,5.62
2023-04-07T03:12:06.879Z,5.58
2023-04-07T03:15:19.011Z,5.55
2023-04-07T03:18:30.455Z,5.50
2023-04-07T03:21:41.750Z,5.47
2023-04-07T03:24:52.906Z,5.44
2023-04-07T03:28:03.698Z,5.42
2023-04-07T03:31:14.791Z,5.38
2023-04-07T03:34:26.265Z,5.35
2023-04-07T03:37:37.322Z,5.31
2023-04-07T03:40:48.600Z,5.29
2023-04-07T03:43:59.708Z,5.27
2023-04-07T03:47:10.591Z,5.22
2023-04-07T03:50:21.664Z,5.16
2023-04-07T03:53:45.236Z,5.12
2023-04-07T03:57:02.522Z,5.08
2023-04-07T04:00:14.858Z,5.05
2023-04-07T04:03:28.749Z,5.02
2023-04-07T04:06:39.611Z,4.97
2023-04-07T04:09:50.305Z,4.93
2023-04-07T04:13:03.854Z,4.88
2023-04-07T04:16:15.319Z,4.84
2023-04-07T04:19:26.421Z,4.83
2023-04-07T04:22:37.284Z,4.84
2023-04-07T04:25:48.174Z,4.85
2023-04-07T04:29:15.887Z,4.84
2023-04-07T04:32:26.746Z,4.83
2023-04-07T04:35:38.061Z,4.82
2023-04-07T04:38:52.245Z,4.83
2023-04-07T04:42:04.039Z,4.83
2023-04-07T04:45:14.867Z,4.85
2023-04-07T04:48:25.674Z,4.87
2023-04-07T04:51:36.431Z,4.89
2023-04-07T04:54:47.196Z,4.95
2023-04-07T04:57:58.432Z,5.00
2023-04-07T05:01:09.621Z,5.04
2023-04-07T05:04:21.671Z,5.07
2023-04-07T05:07:33.231Z,5.08
2023-04-07T05:10:44.878Z,5.08
2023-04-07T05:13:52.460Z,5.07
2023-04-07T05:17:03.835Z,5.04
2023-04-07T05:20:14.925Z,5.00
2023-04-07T05:23:25.712Z,4.96
2023-04-07T05:26:36.683Z,4.92
2023-04-07T05:29:47.948Z,4.88
2023-04-07T05:32:59.153Z,4.84
2023-04-07T05:36:10.957Z,4.80
2023-04-07T05:39:21.813Z,4.75
2023-04-07T05:42:32.600Z,4.71
2023-04-07T05:45:43.544Z,4.69
2023-04-07T05:48:54.781Z,4.66
2023-04-07T05:52:06.575Z,4.64
2023-04-07T05:55:17.940Z,4.63
2023-04-07T05:58:29.375Z,4.64
2023-04-07T06:01:40.384Z,4.64
2023-04-07T06:04:51.811Z,4.66
2023-04-07T06:08:02.941Z,4.66
2023-04-07T06:11:13.986Z,4.68
2023-04-07T06:14:24.678Z,4.70
2023-04-07T06:17:35.531Z,4.73
2023-04-07T06:20:46.344Z,4.74
2023-04-07T06:23:57.568Z,4.76
2023-04-07T06:27:09.021Z,4.80
2023-04-07T06:30:20.312Z,4.83
2023-04-07T06:33:31.772Z,4.87
2023-04-07T06:36:42.731Z,4.91
2023-04-07T06:39:56.045Z,4.94
2023-04-07T06:43:09.883Z,4.99
2023-04-07T06:46:20.824Z,5.04
2023-04-07T06:49:31.776Z,5.10
2023-04-07T06:52:43.325Z,5.16
2023-04-07T06:56:03.867Z,5.24
2023-04-07T06:58:57.485Z,5.30
2023-04-07T07:02:09.408Z,5.39
2023-04-07T07:05:21.424Z,5.53
2023-04-07T07:08:32.277Z,5.69
2023-04-07T07:11:40.526Z,5.88
2023-04-07T07:14:51.384Z,6.31
2023-04-07T07:18:02.231Z,6.77
2023-04-07T07:20:57.781Z,7.24
2023-04-07T07:23:51.644Z,8.08
2023-04-07T07:26:52.428Z,8.98
2023-04-07T07:30:03.170Z,9.89
2023-04-07T07:33:13.070Z,10.63
2023-04-07T07:36:13.992Z,11.71
2023-04-07T07:39:05.696Z,12.81
2023-04-07T07:41:56.646Z,13.75
2023-04-07T07:44:47.213Z,14.52
2023-04-07T07:47:38.114Z,15.29
2023-04-07T07:50:28.679Z,15.80
2023-04-07T07:53:19.342Z,16.52
2023-04-07T07:56:09.869Z,17.34
2023-04-07T07:59:00.389Z,18.18
2023-04-07T08:01:51.348Z,19.02
2023-04-07T08:04:41.892Z,19.33
2023-04-07T08:07:32.440Z,19.75
2023-04-07T08:10:25.127Z,19.85
2023-04-07T08:13:16.586Z,19.83
2023-04-07T08:16:07.787Z,19.97
2023-04-07T08:18:58.365Z,20.33
2023-04-07T08:21:48.901Z,20.28
2023-04-07T08:24:39.420Z,20.03
2023-04-07T08:27:30.437Z,20.33
2023-04-07T08:30:22.560Z,20.85
2023-04-07T08:33:12.609Z,20.89
2023-04-07T08:36:03.340Z,20.84
2023-04-07T08:38:53.828Z,21.29
2023-04-07T08:41:46.207Z,22.12
2023-04-07T08:44:38.304Z,23.31
2023-04-07T08:47:29.652Z,23.64
2023-04-07T08:50:20.538Z,23.44
2023-04-07T08:53:13.101Z,23.12
2023-04-07T08:56:06.617Z,23.01
2023-04-07T08:58:56.933Z,23.41
2023-04-07T09:01:47.936Z,23.83
2023-04-07T09:04:39.897Z,23.95
2023-04-07T09:07:30.185Z,23.86
2023-04-07T09:10:21.045Z,23.88
2023-04-07T09:13:14.510Z,24.21
2023-04-07T09:16:05.319Z,24.41
2023-04-07T09:18:55.935Z,24.27
2023-04-07T09:21:51.879Z,23.86
2023-04-07T09:24:42.800Z,23.75
2023-04-07T09:27:34.500Z,24.20
2023-04-07T09:30:25.720Z,24.33
2023-04-07T09:33:18.188Z,24.32
2023-04-07T09:36:09.103Z,24.44
2023-04-07T09:39:09.365Z,24.20
2023-04-07T09:42:08.143Z,23.35
2023-04-07T09:45:00.417Z,22.77
2023-04-07T09:47:52.041Z,22.71
2023-04-07T09:50:46.025Z,23.55
2023-04-07T09:53:44.468Z,24.51
2023-04-07T09:56:35.325Z,25.20
2023-04-07T09:59:26.502Z,25.76
2023-04-07T10:02:17.564Z,25.69
2023-04-07T10:05:09.318Z,25.27
2023-04-07T10:08:05.043Z,24.77
2023-04-07T10:10:55.855Z,24.99
2023-04-07T10:13:47.220Z,25.62
2023-04-07T10:16:45.680Z,26.31
2023-04-07T10:19:39.612Z,27.15
2023-04-07T10:22:31.370Z,27.79
2023-04-07T10:25:23.853Z,28.50
2023-04-07T10:28:15.793Z,28.60
2023-04-07T10:31:43.536Z,29.06
2023-04-07T10:34:53.672Z,30.05
2023-04-07T10:38:04.170Z,31.04
2023-04-07T10:40:54.374Z,31.51
2023-04-07T10:43:45.351Z,31.73
2023-04-07T10:46:55.712Z,31.81
2023-04-07T10:50:08.902Z,31.95
2023-04-07T10:53:09.053Z,31.96
2023-04-07T10:55:59.473Z,31.99
2023-04-07T10:59:13.358Z,31.97
2023-04-07T11:02:17.881Z,32.25
2023-04-07T11:05:09.040Z,32.84
2023-04-07T11:08:02.778Z,33.30
2023-04-07T11:10:53.450Z,33.36
2023-04-07T11:13:44.263Z,33.57
2023-04-07T11:16:42.644Z,33.73
2023-04-07T11:19:56.090Z,33.89
2023-04-07T11:23:14.520Z,33.82
2023-04-07T11:26:16.316Z,33.70
2023-04-07T11:29:10.633Z,33.67
2023-04-07T11:32:01.527Z,32.81
2023-04-07T11:34:52.571Z,29.88
2023-04-07T11:37:43.165Z,27.77
2023-04-07T11:40:38.245Z,26.16
2023-04-07T11:43:29.348Z,25.73
2023-04-07T11:46:19.976Z,24.81
2023-04-07T11:49:17.426Z,24.16
2023-04-07T11:52:20.675Z,25.51
2023-04-07T11:55:22.075Z,24.74
2023-04-07T11:58:13.143Z,23.19
2023-04-07T12:01:07.015Z,24.15
2023-04-07T12:03:59.633Z,25.20
2023-04-07T12:06:50.456Z,26.69
2023-04-07T12:09:43.738Z,26.04
2023-04-07T12:12:34.288Z,24.16
2023-04-07T12:15:25.193Z,22.89
2023-04-07T12:18:19.329Z,22.28
2023-04-07T12:21:09.947Z,22.11
2023-04-07T12:24:00.684Z,22.14
2023-04-07T12:26:51.578Z,22.24
2023-04-07T12:29:42.195Z,23.28
2023-04-07T12:32:34.255Z,24.25
2023-04-07T12:35:24.930Z,26.07
2023-04-07T12:38:15.774Z,26.00
2023-04-07T12:41:06.559Z,25.24
2023-04-07T12:43:57.113Z,24.60
2023-04-07T12:46:47.938Z,25.31
2023-04-07T12:49:38.360Z,27.34
2023-04-07T12:52:28.902Z,28.98
2023-04-07T12:55:19.462Z,27.86
2023-04-07T12:58:10.407Z,26.12
2023-04-07T13:01:01.565Z,24.53
2023-04-07T13:03:52.853Z,23.23
2023-04-07T13:06:43.752Z,21.94
2023-04-07T13:09:34.440Z,20.80
2023-04-07T13:12:25.047Z,19.96
2023-04-07T13:15:16.119Z,19.29
2023-04-07T13:18:06.978Z,18.83
2023-04-07T13:21:33.741Z,18.69
2023-04-07T13:24:08.378Z,18.66
2023-04-07T13:26:59.766Z,18.83
2023-04-07T13:29:50.364Z,19.07
2023-04-07T13:32:41.074Z,19.72
2023-04-07T13:35:36.046Z,20.81
2023-04-07T13:38:26.887Z,20.81
2023-04-07T13:41:17.491Z,20.25
2023-04-07T13:44:08.263Z,19.85
2023-04-07T13:46:59.044Z,19.71
2023-04-07T13:49:50.899Z,19.35
2023-04-07T13:52:41.438Z,18.90
2023-04-07T13:55:36.973Z,18.53
2023-04-07T13:58:32.088Z,18.36
2023-04-07T14:01:27.934Z,18.62
2023-04-07T14:04:20.153Z,19.38
2023-04-07T14:07:11.008Z,21.47
2023-04-07T14:10:01.568Z,21.93
2023-04-07T14:12:52.619Z,21.84
2023-04-07T14:15:42.939Z,21.68
2023-04-07T14:18:33.411Z,21.54
2023-04-07T14:21:24.615Z,21.27
2023-04-07T14:24:15.133Z,20.97
2023-04-07T14:27:05.981Z,21.17
2023-04-07T14:29:58.116Z,21.02
2023-04-07T14:32:48.792Z,20.66
2023-04-07T14:35:39.881Z,20.62
2023-04-07T14:38:30.946Z,20.65
2023-04-07T14:41:21.643Z,20.45
2023-04-07T14:44:12.214Z,20.26
2023-04-07T14:47:02.755Z,19.83
2023-04-07T14:49:54.489Z,19.65
2023-04-07T14:52:44.858Z,19.84
2023-04-07T14:55:36.350Z,19.99
2023-04-07T14:58:26.909Z,19.83
2023-04-07T15:01:23.889Z,19.52
2023-04-07T15:04:14.834Z,19.22
2023-04-07T15:07:05.440Z,18.82
2023-04-07T15:09:57.019Z,18.30
2023-04-07T15:12:48.918Z,17.95
2023-04-07T15:15:39.812Z,17.95
2023-04-07T15:18:30.779Z,17.88
2023-04-07T15:21:21.704Z,17.93
2023-04-07T15:24:13.328Z,17.79
2023-04-07T15:27:05.546Z,17.73
2023-04-07T15:29:56.226Z,17.92
2023-04-07T15:33:00.648Z,18.09
2023-04-07T15:35:51.003Z,18.16
2023-04-07T15:38:42.415Z,18.10
2023-04-07T15:41:33.353Z,17.81
2023-04-07T15:44:24.041Z,17.39
2023-04-07T15:47:14.736Z,17.05
2023-04-07T15:50:06.157Z,16.82
2023-04-07T15:52:57.269Z,16.88
2023-04-07T15:55:47.958Z,16.92
2023-04-07T15:58:38.859Z,16.88
2023-04-07T16:01:30.186Z,16.81
2023-04-07T16:04:23.462Z,16.65
2023-04-07T16:07:14.292Z,16.52
2023-04-07T16:10:08.351Z,16.47
2023-04-07T16:13:00.884Z,16.42
2023-04-07T16:15:54.598Z,16.37
2023-04-07T16:18:45.204Z,16.37
2023-04-07T16:21:35.794Z,16.38
2023-04-07T16:24:26.379Z,16.43
2023-04-07T16:27:17.088Z,16.49
2023-04-07T16:30:08.620Z,16.50
2023-04-07T16:33:00.378Z,16.44
2023-04-07T16:35:51.554Z,16.39
2023-04-07T16:38:42.309Z,16.33
2023-04-07T16:44:37.262Z,16.17
2023-04-07T16:47:28.316Z,16.09
2023-04-07T16:50:18.753Z,15.98
2023-04-07T16:53:11.436Z,15.93
2023-04-07T16:56:02.438Z,15.90
2023-04-07T16:58:52.980Z,15.82
2023-04-07T17:01:48.271Z,15.75
2023-04-07T17:04:39.039Z,15.67
2023-04-07T17:07:29.735Z,15.57
2023-04-07T17:10:20.359Z,15.47
2023-04-07T17:13:14.150Z,15.33
2023-04-07T17:16:08.094Z,15.17
2023-04-07T17:18:58.575Z,15.02
2023-04-07T17:21:49.412Z,14.94
2023-04-07T17:24:39.964Z,14.86
2023-04-07T17:27:30.602Z,14.78
2023-04-07T17:30:21.572Z,14.70
2023-04-07T17:33:16.212Z,14.64
2023-04-07T17:36:08.999Z,14.59
2023-04-07T17:39:03.146Z,14.52
2023-04-07T17:41:58.364Z,14.43
2023-04-07T17:44:52.589Z,14.34
2023-04-07T17:47:43.355Z,14.27
2023-04-07T17:50:38.280Z,14.21
2023-04-07T17:53:28.900Z,14.11
2023-04-07T17:56:25.792Z,13.99
2023-04-07T17:59:19.446Z,13.89
2023-04-07T18:02:14.282Z,13.75
2023-04-07T18:05:09.234Z,13.60
2023-04-07T18:08:12.213Z,13.47
2023-04-07T18:11:23.024Z,13.30
2023-04-07T18:14:33.971Z,13.19
2023-04-07T18:17:35.584Z,13.05
2023-04-07T18:20:26.189Z,12.94
2023-04-07T18:23:16.930Z,12.82
2023-04-07T18:26:17.357Z,12.72
2023-04-07T18:29:16.811Z,12.62
2023-04-07T18:32:09.890Z,12.54
2023-04-07T18:35:20.850Z,12.45
2023-04-07T18:38:30.150Z,12.36
2023-04-07T18:41:44.546Z,12.28
2023-04-07T18:44:35.264Z,12.22
2023-04-07T18:47:35.302Z,12.15
2023-04-07T18:50:49.981Z,12.07
2023-04-07T18:53:40.550Z,11.99
2023-04-07T18:56:44.266Z,11.91
2023-04-07T18:59:46.197Z,11.83
2023-04-07T19:02:44.636Z,11.76
2023-04-07T19:05:47.834Z,11.68
2023-04-07T19:08:50.072Z,11.61
2023-04-07T19:11:43.744Z,11.54
2023-04-07T19:14:39.053Z,11.47
2023-04-07T19:17:30.474Z,11.40
2023-04-07T19:20:21.205Z,11.33
2023-04-07T19:23:11.837Z,11.27
2023-04-07T19:26:22.668Z,11.21
2023-04-07T19:29:13.302Z,11.17
2023-04-07T19:32:24.332Z,11.11
2023-04-07T19:35:35.898Z,11.03
2023-04-07T19:38:37.998Z,10.96
2023-04-07T19:41:48.762Z,10.89
2023-04-07T19:44:48.576Z,10.83
2023-04-07T19:47:43.573Z,10.78
2023-04-07T19:50:43.133Z,10.73
2023-04-07T19:53:42.715Z,10.65
2023-04-07T19:56:42.394Z,10.56
2023-04-07T19:59:41.971Z,10.46
2023-04-07T20:02:44.171Z,10.36
2023-04-07T20:05:47.913Z,10.27
2023-04-07T20:08:43.762Z,10.20
2023-04-07T20:11:53.669Z,10.14
2023-04-07T20:15:07.195Z,10.11
2023-04-07T20:18:11.269Z,10.07
2023-04-07T20:21:07.596Z,10.04
2023-04-07T20:24:19.158Z,9.98
2023-04-07T20:27:22.941Z,9.93
2023-04-07T20:30:17.375Z,9.86
2023-04-07T20:33:28.682Z,9.78
2023-04-07T20:36:39.945Z,9.67
2023-04-07T20:39:55.717Z,9.59
2023-04-07T20:43:06.919Z,9.54
2023-04-07T20:46:00.536Z,9.51
2023-04-07T20:49:11.806Z,9.49
2023-04-07T20:52:08.078Z,9.47
2023-04-07T20:55:19.295Z,9.42
2023-04-07T20:58:21.713Z,9.38
2023-04-07T21:01:32.630Z,9.34
2023-04-07T21:04:38.860Z,9.28
2023-04-07T21:07:49.815Z,9.25
2023-04-07T21:11:00.916Z,9.22
2023-04-07T21:14:04.806Z,9.19
2023-04-07T21:17:08.015Z,9.16
2023-04-07T21:20:19.169Z,9.12
2023-04-07T21:23:23.973Z,9.08
2023-04-07T21:26:34.736Z,9.04
2023-04-07T21:29:41.235Z,8.99
2023-04-07T21:32:48.227Z,8.93
2023-04-07T21:35:49.828Z,8.86
2023-04-07T21:38:54.035Z,8.77
2023-04-07T21:42:04.906Z,8.69
2023-04-07T21:45:16.285Z,8.62
2023-04-07T21:48:27.132Z,8.54
2023-04-07T21:51:38.036Z,8.49
2023-04-07T21:54:49.324Z,8.47
2023-04-07T21:58:00.837Z,8.44
2023-04-07T22:01:11.579Z,8.39
2023-04-07T22:04:23.231Z,8.36
2023-04-07T22:07:36.612Z,8.31
2023-04-07T22:10:43.522Z,8.29
2023-04-07T22:13:54.356Z,8.27
2023-04-07T22:17:05.500Z,8.27
2023-04-07T22:20:16.300Z,8.25
2023-04-07T22:23:28.006Z,8.24
2023-04-07T22:26:21.859Z,8.22
2023-04-07T22:29:23.591Z,8.19
2023-04-07T22:32:33.113Z,8.15
2023-04-07T22:35:44.087Z,8.13
2023-04-07T22:38:54.839Z,8.08
2023-04-07T22:42:05.937Z,8.03
2023-04-07T22:45:16.864Z,8.00
2023-04-07T22:48:20.144Z,7.94
2023-04-07T22:51:13.576Z,7.91
2023-04-07T22:54:25.094Z,7.86
2023-04-07T22:57:29.205Z,7.81
2023-04-07T23:00:28.702Z,7.77
2023-04-07T23:03:39.570Z,7.74
2023-04-07T23:06:50.974Z,7.71
2023-04-07T23:09:56.332Z,7.68
2023-04-07T23:13:01.518Z,7.64
2023-04-07T23:16:14.791Z,7.61
2023-04-07T23:19:19.761Z,7.58
2023-04-07T23:22:31.019Z,7.57
2023-04-07T23:25:42.401Z,7.54
2023-04-07T23:28:53.162Z,7.51
2023-04-07T23:32:02.602Z,7.50
2023-04-07T23:34:56.112Z,7.45
2023-04-07T23:37:50.142Z,7.42
2023-04-07T23:41:01.348Z,7.41
2023-04-07T23:44:12.446Z,7.39
2023-04-07T23:47:19.937Z,7.37
2023-04-07T23:50:33.148Z,7.36
2023-04-07T23:53:44.707Z,7.35
2023-04-07T23:56:58.760Z,7.34
